createdAt,value
2023-03-10T00:00:08.753Z,8.80
2023-03-10T00:02:36.951Z,7.90
2023-03-10T00:05:06.791Z,7.90
2023-03-10T00:07:35.014Z,8.70
2023-03-10T00:10:03.650Z,8.70
2023-03-10T00:12:31.866Z,5.00
2023-03-10T00:15:00.156Z,8.30
2023-03-10T00:17:28.819Z,8.00
2023-03-10T00:19:57.339Z,8.40
2023-03-10T00:22:25.723Z,7.50
2023-03-10T00:24:53.858Z,8.80
2023-03-10T00:27:22.169Z,8.40
2023-03-10T00:29:52.377Z,10.40
2023-03-10T00:32:20.598Z,8.40
2023-03-10T00:34:48.914Z,8.10
2023-03-10T00:37:18.175Z,8.20
2023-03-10T00:39:49.840Z,7.70
2023-03-10T00:42:18.032Z,8.10
2023-03-10T00:44:48.023Z,9.20
2023-03-10T00:47:16.974Z,9.30
2023-03-10T00:49:45.264Z,7.60
2023-03-10T00:52:13.424Z,9.20
2023-03-10T00:54:42.126Z,9.90
2023-03-10T00:57:10.471Z,10.80
2023-03-10T00:59:50.001Z,10.40
2023-03-10T01:02:19.802Z,11.50
2023-03-10T01:04:48.367Z,7.80
2023-03-10T01:07:16.677Z,11.40
2023-03-10T01:09:44.861Z,9.10
2023-03-10T01:12:13.063Z,11.40
2023-03-10T01:14:41.262Z,9.70
2023-03-10T01:17:09.979Z,12.90
2023-03-10T01:19:38.157Z,11.00
2023-03-10T01:22:06.360Z,11.60
2023-03-10T01:24:34.642Z,12.10
2023-03-10T01:27:02.821Z,8.90
2023-03-10T01:29:31.115Z,11.50
2023-03-10T01:31:59.366Z,10.90
2023-03-10T01:34:28.014Z,13.00
2023-03-10T01:36:56.261Z,12.20
2023-03-10T01:39:24.423Z,10.50
2023-03-10T01:41:52.612Z,11.80
2023-03-10T01:44:21.639Z,11.10
2023-03-10T01:46:52.887Z,11.70
2023-03-10T01:49:31.301Z,10.90
2023-03-10T01:52:04.017Z,13.30
2023-03-10T01:54:42.343Z,12.90
2023-03-10T01:57:13.910Z,9.10
2023-03-10T01:59:43.441Z,8.00
2023-03-10T02:02:12.084Z,10.80
2023-03-10T02:04:44.044Z,13.10
2023-03-10T02:07:13.888Z,9.90
2023-03-10T02:09:45.892Z,11.40
2023-03-10T02:12:15.269Z,12.30
2023-03-10T02:14:47.075Z,12.30
2023-03-10T02:17:17.950Z,11.60
2023-03-10T02:20:02.535Z,13.10
2023-03-10T02:22:32.605Z,11.70
2023-03-10T02:25:07.998Z,12.40
2023-03-10T02:27:38.291Z,10.80
2023-03-10T02:30:11.701Z,12.70
2023-03-10T02:32:42.783Z,10.80
2023-03-10T02:35:11.900Z,11.50
2023-03-10T02:37:46.266Z,11.70
2023-03-10T02:40:34.750Z,12.70
2023-03-10T02:43:13.678Z,13.30
2023-03-10T02:45:44.712Z,14.50
2023-03-10T02:48:16.004Z,13.50
2023-03-10T02:50:46.843Z,13.70
2023-03-10T02:53:18.227Z,14.20
2023-03-10T02:55:46.764Z,13.70
2023-03-10T02:58:15.447Z,14.90
2023-03-10T03:00:45.341Z,15.00
2023-03-10T03:03:16.154Z,14.20
2023-03-10T03:05:44.751Z,13.80
2023-03-10T03:08:13.469Z,14.80
2023-03-10T03:10:43.097Z,13.20
2023-03-10T03:13:12.351Z,13.40
2023-03-10T03:15:42.004Z,14.60
2023-03-10T03:18:10.976Z,14.50
2023-03-10T03:20:40.439Z,15.10
2023-03-10T03:23:09.570Z,12.80
2023-03-10T03:25:40.627Z,14.10
2023-03-10T03:28:10.984Z,13.70
2023-03-10T03:30:40.117Z,14.50
2023-03-10T03:33:08.756Z,13.60
2023-03-10T03:35:38.134Z,13.40
2023-03-10T03:38:07.869Z,13.70
2023-03-10T03:40:39.296Z,14.20
2023-03-10T03:43:07.705Z,12.80
2023-03-10T03:45:36.071Z,12.80
2023-03-10T03:48:04.677Z,13.10
2023-03-10T03:50:33.447Z,14.50
2023-03-10T03:53:05.748Z,13.00
2023-03-10T03:55:35.167Z,14.90
2023-03-10T03:58:03.882Z,15.90
2023-03-10T04:00:33.769Z,15.90
2023-03-10T04:03:03.343Z,15.20
2023-03-10T04:05:31.807Z,16.20
2023-03-10T04:08:00.127Z,14.40
2023-03-10T04:10:29.904Z,17.50
2023-03-10T04:12:58.239Z,14.60
2023-03-10T04:15:27.368Z,15.80
2023-03-10T04:17:57.180Z,17.30
2023-03-10T04:20:26.129Z,16.60
2023-03-10T04:22:54.901Z,17.50
2023-03-10T04:25:26.123Z,17.60
2023-03-10T04:27:54.533Z,15.40
2023-03-10T04:30:28.296Z,17.10
2023-03-10T04:32:59.301Z,11.30
2023-03-10T04:35:29.042Z,16.80
2023-03-10T04:37:57.834Z,14.10
2023-03-10T04:40:26.331Z,16.80
2023-03-10T04:46:21.830Z,15.30
2023-03-10T04:48:51.383Z,14.40
2023-03-10T04:51:19.747Z,14.70
2023-03-10T04:53:52.369Z,16.40
2023-03-10T04:56:21.050Z,15.90
2023-03-10T04:58:49.268Z,12.70
2023-03-10T05:01:18.012Z,15.40
2023-03-10T05:03:49.730Z,14.10
2023-03-10T05:06:21.499Z,14.40
2023-03-10T05:09:05.399Z,14.60
2023-03-10T05:11:34.330Z,15.20
2023-03-10T05:14:03.120Z,10.20
2023-03-10T05:16:31.481Z,13.50
2023-03-10T05:18:59.692Z,12.70
2023-03-10T05:21:29.365Z,14.00
2023-03-10T05:23:58.735Z,14.20
2023-03-10T05:26:27.642Z,15.70
2023-03-10T05:28:56.130Z,11.90
2023-03-10T05:31:44.760Z,17.20
2023-03-10T05:34:16.927Z,14.90
2023-03-10T05:36:46.037Z,14.30
2023-03-10T05:39:16.440Z,14.90
2023-03-10T05:41:47.153Z,13.00
2023-03-10T05:44:15.265Z,12.90
2023-03-10T05:46:43.559Z,14.80
2023-03-10T05:49:11.869Z,16.00
2023-03-10T05:51:40.495Z,14.20
2023-03-10T05:54:09.187Z,11.30
2023-03-10T05:56:37.784Z,17.00
2023-03-10T05:59:06.754Z,17.30
2023-03-10T06:01:36.728Z,16.50
2023-03-10T06:04:05.165Z,15.20
2023-03-10T06:06:34.358Z,11.00
2023-03-10T06:09:03.934Z,16.90
2023-03-10T06:11:33.150Z,17.60
2023-03-10T06:14:01.379Z,17.10
2023-03-10T06:16:29.742Z,14.30
2023-03-10T06:18:58.382Z,18.30
2023-03-10T06:21:28.083Z,17.20
2023-03-10T06:23:56.350Z,22.10
2023-03-10T06:26:24.521Z,17.00
2023-03-10T06:28:53.027Z,22.60
2023-03-10T06:31:23.760Z,22.10
2023-03-10T06:33:52.243Z,19.30
2023-03-10T06:36:21.395Z,23.80
2023-03-10T06:38:49.756Z,20.60
2023-03-10T06:41:18.206Z,20.50
2023-03-10T06:43:47.365Z,23.10
2023-03-10T06:46:15.929Z,22.00
2023-03-10T06:48:45.271Z,23.30
2023-03-10T06:51:17.095Z,24.30
2023-03-10T06:53:45.396Z,19.70
2023-03-10T06:56:18.097Z,22.50
2023-03-10T06:58:47.403Z,18.80
2023-03-10T07:01:24.939Z,21.60
2023-03-10T07:03:53.591Z,21.20
2023-03-10T07:06:22.305Z,24.60
2023-03-10T07:08:51.112Z,23.40
2023-03-10T07:11:22.893Z,16.10
2023-03-10T07:14:43.677Z,18.60
2023-03-10T07:21:34.303Z,23.00
2023-03-10T07:24:03.265Z,23.10
2023-03-10T07:26:31.817Z,22.40
2023-03-10T07:29:02.015Z,24.60
2023-03-10T07:31:35.966Z,22.90
2023-03-10T07:37:58.636Z,19.60
2023-03-10T07:40:36.221Z,23.50
2023-03-10T07:46:37.174Z,24.50
2023-03-10T07:50:22.190Z,20.70
2023-03-10T07:52:50.864Z,22.20
2023-03-10T07:55:19.562Z,23.40
2023-03-10T07:58:12.700Z,24.60
2023-03-10T08:00:41.420Z,24.50
2023-03-10T08:03:46.689Z,24.30
2023-03-10T08:06:20.475Z,21.20
2023-03-10T08:08:49.326Z,23.80
2023-03-10T08:14:47.259Z,21.50
2023-03-10T08:17:15.883Z,24.10
2023-03-10T08:19:44.286Z,25.20
2023-03-10T08:22:12.601Z,20.50
2023-03-10T08:24:41.440Z,23.60
2023-03-10T08:27:09.634Z,20.90
2023-03-10T08:29:37.823Z,23.90
2023-03-10T08:32:07.241Z,25.10
2023-03-10T08:34:38.941Z,23.00
2023-03-10T08:37:10.150Z,25.70
2023-03-10T08:39:39.409Z,25.70
2023-03-10T08:42:11.079Z,21.50
2023-03-10T08:44:40.354Z,25.90
2023-03-10T08:47:10.233Z,24.70
2023-03-10T08:49:38.511Z,25.60
2023-03-10T08:52:21.772Z,25.40
2023-03-10T08:54:50.036Z,19.10
2023-03-10T08:57:37.336Z,25.20
2023-03-10T09:00:29.818Z,24.00
2023-03-10T09:03:00.630Z,23.70
2023-03-10T09:05:31.327Z,30.20
2023-03-10T09:08:07.430Z,22.50
2023-03-10T09:10:36.849Z,23.20
2023-03-10T09:13:13.618Z,24.30
2023-03-10T09:15:42.226Z,22.50
2023-03-10T09:18:12.070Z,22.00
2023-03-10T09:20:41.379Z,25.00
2023-03-10T09:23:11.122Z,22.70
2023-03-10T09:25:40.177Z,18.60
2023-03-10T09:28:10.862Z,23.10
2023-03-10T09:30:59.629Z,20.60
2023-03-10T09:33:28.577Z,20.70
2023-03-10T09:36:06.483Z,19.50
2023-03-10T09:38:36.289Z,20.90
2023-03-10T09:41:38.116Z,20.50
2023-03-10T09:44:23.919Z,21.10
2023-03-10T09:47:05.278Z,18.90
2023-03-10T09:49:38.728Z,19.80
2023-03-10T09:52:22.182Z,20.60
2023-03-10T09:54:58.702Z,17.90
2023-03-10T10:02:02.580Z,11.60
2023-03-10T10:04:36.671Z,19.00
2023-03-10T10:07:12.919Z,20.50
2023-03-10T10:10:29.731Z,19.10
2023-03-10T10:13:47.111Z,21.80
2023-03-10T10:16:45.147Z,18.90
2023-03-10T10:19:18.628Z,15.60
2023-03-10T10:26:09.029Z,14.80
2023-03-10T10:28:41.904Z,16.20
2023-03-10T10:31:17.085Z,16.70
2023-03-10T10:36:51.412Z,15.30
2023-03-10T10:39:28.244Z,15.40
2023-03-10T10:42:13.582Z,15.50
2023-03-10T10:44:43.855Z,18.60
2023-03-10T10:47:26.236Z,18.70
2023-03-10T10:49:56.296Z,17.40
2023-03-10T10:52:26.027Z,18.00
2023-03-10T10:54:59.394Z,18.90
2023-03-10T10:57:32.286Z,19.40
2023-03-10T11:00:24.639Z,18.20
2023-03-10T11:04:12.450Z,18.00
2023-03-10T11:06:40.899Z,17.50
2023-03-10T11:09:53.826Z,21.70
2023-03-10T11:12:49.288Z,21.40
2023-03-10T11:15:23.976Z,19.20
2023-03-10T11:17:57.006Z,17.60
2023-03-10T11:20:32.245Z,17.30
2023-03-10T11:23:14.585Z,21.40
2023-03-10T11:25:50.095Z,19.20
2023-03-10T11:28:40.009Z,20.50
2023-03-10T11:31:20.245Z,18.90
2023-03-10T11:33:54.194Z,19.90
2023-03-10T11:36:38.404Z,20.00
2023-03-10T11:39:21.404Z,19.20
2023-03-10T11:42:05.295Z,18.50
2023-03-10T11:44:38.862Z,18.90
2023-03-10T11:47:16.682Z,16.50
2023-03-10T11:49:52.275Z,15.80
2023-03-10T11:52:25.564Z,15.80
2023-03-10T11:55:00.774Z,15.70
2023-03-10T11:57:36.684Z,15.80
2023-03-10T12:00:18.205Z,15.70
2023-03-10T12:02:58.820Z,14.30
2023-03-10T12:05:31.981Z,15.50
2023-03-10T12:08:04.298Z,14.50
2023-03-10T12:10:38.189Z,17.50
2023-03-10T12:13:12.898Z,14.00
2023-03-10T12:15:42.984Z,14.90
2023-03-10T12:18:12.004Z,14.40
2023-03-10T12:20:40.304Z,15.20
2023-03-10T12:23:39.795Z,14.30
2023-03-10T12:26:08.178Z,14.60
2023-03-10T12:28:37.404Z,16.90
2023-03-10T12:31:07.378Z,13.70
2023-03-10T12:33:52.721Z,13.50
2023-03-10T12:36:34.832Z,14.30
2023-03-10T12:39:37.324Z,12.60
2023-03-10T12:42:26.328Z,13.00
2023-03-10T12:45:02.744Z,11.20
2023-03-10T12:47:43.549Z,10.10
2023-03-10T12:50:33.050Z,12.70
2023-03-10T12:53:21.009Z,9.90
2023-03-10T12:56:23.333Z,8.00
2023-03-10T12:59:05.152Z,6.80
2023-03-10T13:01:55.096Z,5.30
2023-03-10T13:04:26.710Z,6.00
2023-03-10T13:07:03.041Z,5.30
2023-03-10T13:09:37.961Z,5.40
2023-03-10T13:12:16.961Z,4.90
2023-03-10T13:14:51.000Z,5.80
2023-03-10T13:17:29.948Z,7.30
2023-03-10T13:20:51.045Z,7.00
2023-03-10T13:23:41.845Z,4.20
2023-03-10T13:26:16.815Z,4.50
2023-03-10T13:28:52.781Z,4.00
2023-03-10T13:31:24.378Z,4.40
2023-03-10T13:35:04.301Z,4.90
2023-03-10T13:37:32.616Z,6.60
2023-03-10T13:40:09.790Z,5.00
2023-03-10T13:42:44.285Z,4.90
2023-03-10T13:45:23.041Z,5.10
2023-03-10T13:47:55.650Z,4.70
2023-03-10T13:50:24.915Z,4.80
2023-03-10T13:52:56.695Z,4.60
2023-03-10T13:55:49.632Z,4.70
2023-03-10T13:58:18.380Z,4.70
2023-03-10T14:00:49.925Z,4.40
2023-03-10T14:03:19.643Z,4.30
2023-03-10T14:10:21.175Z,4.00
2023-03-10T14:23:38.313Z,5.00
2023-03-10T14:26:33.508Z,5.00
2023-03-10T14:29:11.726Z,4.80
2023-03-10T14:31:42.672Z,5.20
2023-03-10T14:34:15.665Z,5.40
2023-03-10T14:36:46.470Z,5.00
2023-03-10T14:39:18.127Z,5.40
2023-03-10T14:42:21.919Z,4.90
2023-03-10T14:44:55.646Z,5.20
2023-03-10T14:47:50.838Z,5.20
2023-03-10T14:50:24.255Z,5.20
2023-03-10T14:52:58.499Z,5.40
2023-03-10T14:55:41.163Z,5.30
2023-03-10T14:58:17.923Z,5.60
2023-03-10T15:00:50.226Z,4.90
2023-03-10T15:03:23.909Z,5.10
2023-03-10T15:05:54.887Z,5.90
2023-03-10T15:08:26.809Z,6.10
2023-03-10T15:10:58.821Z,6.10
2023-03-10T15:13:31.033Z,6.70
2023-03-10T15:16:02.348Z,6.10
2023-03-10T15:23:59.900Z,6.30
2023-03-10T15:26:31.561Z,5.70
2023-03-10T15:29:53.521Z,6.20
2023-03-10T15:33:12.565Z,6.20
2023-03-10T15:35:44.331Z,6.30
2023-03-10T15:38:49.414Z,6.30
2023-03-10T15:41:47.605Z,7.20
2023-03-10T15:45:07.747Z,6.40
2023-03-10T15:52:45.244Z,7.10
2023-03-10T15:59:10.801Z,5.90
2023-03-10T16:01:42.082Z,5.80
2023-03-10T16:04:13.180Z,6.30
2023-03-10T16:11:26.783Z,6.50
2023-03-10T16:13:58.004Z,7.00
2023-03-10T16:17:16.175Z,6.60
2023-03-10T16:22:59.722Z,6.30
2023-03-10T16:25:34.346Z,9.20
2023-03-10T16:28:16.020Z,8.40
2023-03-10T16:30:53.087Z,9.50
2023-03-10T16:33:40.350Z,8.90
2023-03-10T16:36:14.896Z,8.50
2023-03-10T16:38:46.426Z,9.00
2023-03-10T16:41:21.187Z,7.90
2023-03-10T16:43:54.709Z,7.70
2023-03-10T16:46:32.196Z,7.10
2023-03-10T16:49:04.078Z,9.40
2023-03-10T16:51:38.201Z,10.20
2023-03-10T16:54:12.098Z,15.60
2023-03-10T16:56:45.675Z,10.40
2023-03-10T16:59:39.107Z,10.30
2023-03-10T17:02:14.347Z,21.00
2023-03-10T17:07:15.818Z,12.10
2023-03-10T17:09:47.023Z,11.60
2023-03-10T17:12:18.512Z,12.90
2023-03-10T17:14:50.909Z,11.20
2023-03-10T17:17:22.083Z,11.10
2023-03-10T17:19:55.049Z,10.70
2023-03-10T17:22:27.827Z,10.10
2023-03-10T17:25:03.298Z,12.20
2023-03-10T17:27:38.175Z,12.00
2023-03-10T17:30:11.998Z,12.80
2023-03-10T17:32:42.815Z,11.80
2023-03-10T17:35:25.801Z,9.80
2023-03-10T17:38:06.114Z,10.20
2023-03-10T17:40:41.713Z,10.30
2023-03-10T17:43:23.237Z,11.00
2023-03-10T17:46:36.628Z,12.10
2023-03-10T17:49:07.959Z,11.20
2023-03-10T17:51:41.055Z,10.50
2023-03-10T17:54:13.083Z,12.10
2023-03-10T17:56:44.574Z,11.80
2023-03-10T17:59:16.540Z,10.70
2023-03-10T18:01:49.326Z,30.10
2023-03-10T18:04:20.569Z,12.80
2023-03-10T18:06:51.929Z,11.80
2023-03-10T18:09:23.111Z,15.00
2023-03-10T18:11:55.436Z,17.40
2023-03-10T18:14:26.988Z,21.90
2023-03-10T18:16:59.453Z,16.20
2023-03-10T18:19:30.584Z,16.00
2023-03-10T18:22:05.811Z,14.20
2023-03-10T18:24:44.706Z,12.60
2023-03-10T18:27:16.695Z,13.20
2023-03-10T18:29:47.868Z,12.00
2023-03-10T18:32:19.034Z,10.70
2023-03-10T18:34:50.519Z,12.20
2023-03-10T18:37:21.529Z,11.40
2023-03-10T18:39:53.382Z,12.50
2023-03-10T18:42:24.402Z,11.80
2023-03-10T18:44:56.081Z,11.50
2023-03-10T18:47:27.645Z,10.80
2023-03-10T18:49:59.701Z,10.60
2023-03-10T18:52:33.082Z,11.50
2023-03-10T18:55:05.456Z,11.50
2023-03-10T18:57:36.693Z,11.20
2023-03-10T19:00:12.432Z,9.90
2023-03-10T19:02:43.723Z,9.70
2023-03-10T19:05:19.857Z,10.90
2023-03-10T19:07:50.868Z,10.20
2023-03-10T19:10:22.502Z,9.80
2023-03-10T19:12:53.503Z,9.60
2023-03-10T19:15:24.912Z,9.60
2023-03-10T19:17:56.359Z,9.50
2023-03-10T19:20:27.869Z,10.30
2023-03-10T19:22:59.989Z,8.60
2023-03-10T19:25:31.999Z,9.80
2023-03-10T19:28:03.004Z,9.50
2023-03-10T19:30:34.196Z,10.20
2023-03-10T19:33:05.457Z,10.60
2023-03-10T19:35:36.499Z,10.80
2023-03-10T19:38:08.236Z,9.90
2023-03-10T19:40:39.673Z,10.70
2023-03-10T19:43:10.757Z,11.00
2023-03-10T19:45:42.376Z,12.40
2023-03-10T19:48:13.847Z,9.60
2023-03-10T19:50:44.752Z,10.10
2023-03-10T19:53:15.486Z,10.30
2023-03-10T19:55:46.472Z,10.40
2023-03-10T19:58:18.497Z,9.20
2023-03-10T20:00:49.975Z,10.90
2023-03-10T20:03:23.790Z,10.10
2023-03-10T20:05:54.988Z,10.60
2023-03-10T20:08:26.346Z,10.80
2023-03-10T20:11:02.181Z,10.20
2023-03-10T20:13:35.871Z,11.50
2023-03-10T20:16:08.623Z,11.30
2023-03-10T20:18:39.856Z,10.50
2023-03-10T20:21:11.124Z,23.40
2023-03-10T20:23:47.532Z,14.50
2023-03-10T20:26:19.792Z,11.50
2023-03-10T20:28:51.692Z,12.10
2023-03-10T20:31:24.407Z,11.90
2023-03-10T20:33:55.765Z,11.20
2023-03-10T20:36:26.609Z,11.90
2023-03-10T20:38:58.010Z,11.90
2023-03-10T20:41:28.800Z,11.90
2023-03-10T20:44:00.683Z,12.00
2023-03-10T20:46:32.817Z,12.30
2023-03-10T20:49:06.010Z,13.70
2023-03-10T20:51:37.089Z,12.20
2023-03-10T20:54:08.119Z,12.10
2023-03-10T20:56:39.057Z,13.00
2023-03-10T20:59:10.211Z,12.00
2023-03-10T21:01:42.585Z,10.80
2023-03-10T21:04:13.755Z,11.90
2023-03-10T21:06:47.918Z,11.20
2023-03-10T21:09:22.323Z,11.00
2023-03-10T21:11:53.525Z,9.70
2023-03-10T21:14:27.265Z,10.50
2023-03-10T21:17:00.041Z,10.50
2023-03-10T21:19:32.538Z,11.20
2023-03-10T21:22:09.717Z,10.80
2023-03-10T21:24:41.374Z,9.90
2023-03-10T21:27:12.431Z,11.00
2023-03-10T21:29:43.857Z,9.00
2023-03-10T21:32:14.722Z,10.20
2023-03-10T21:34:46.928Z,9.20
2023-03-10T21:37:17.940Z,9.80
2023-03-10T21:39:52.679Z,9.50
2023-03-10T21:42:23.673Z,10.30
2023-03-10T21:44:55.992Z,10.30
2023-03-10T21:47:26.753Z,11.60
2023-03-10T21:49:57.954Z,11.90
2023-03-10T21:52:28.814Z,12.20
2023-03-10T21:55:00.526Z,14.00
2023-03-10T21:57:32.931Z,12.90
2023-03-10T22:00:04.248Z,13.70
2023-03-10T22:02:38.987Z,13.80
2023-03-10T22:05:12.844Z,14.30
2023-03-10T22:07:44.331Z,14.00
2023-03-10T22:10:17.885Z,15.30
2023-03-10T22:12:49.933Z,15.80
2023-03-10T22:15:23.258Z,14.70
2023-03-10T22:17:56.833Z,16.30
2023-03-10T22:20:29.458Z,17.00
2023-03-10T22:23:00.451Z,16.70
2023-03-10T22:25:31.508Z,18.80
2023-03-10T22:28:03.012Z,18.10
2023-03-10T22:30:33.852Z,19.20
2023-03-10T22:33:06.924Z,18.70
2023-03-10T22:35:38.526Z,18.30
2023-03-10T22:38:09.851Z,16.70
2023-03-10T22:40:40.931Z,18.00
2023-03-10T22:43:11.779Z,19.10
2023-03-10T22:45:42.947Z,19.10
2023-03-10T22:48:13.847Z,18.40
2023-03-10T22:50:46.846Z,18.10
2023-03-10T22:53:19.753Z,19.30
2023-03-10T22:55:52.045Z,18.40
2023-03-10T22:58:23.126Z,17.40
2023-03-10T23:00:53.798Z,19.50
2023-03-10T23:03:24.835Z,19.60
2023-03-10T23:05:58.618Z,17.80
2023-03-10T23:08:29.516Z,18.20
2023-03-10T23:11:00.224Z,20.60
2023-03-10T23:13:31.044Z,18.50
2023-03-10T23:16:02.037Z,19.00
2023-03-10T23:18:32.826Z,19.40
2023-03-10T23:21:03.815Z,17.30
2023-03-10T23:23:35.006Z,19.70
2023-03-10T23:26:06.233Z,19.30
2023-03-10T23:28:36.978Z,19.90
2023-03-10T23:31:08.766Z,20.70
2023-03-10T23:33:40.737Z,20.30
2023-03-10T23:36:13.619Z,18.90
2023-03-10T23:38:44.442Z,19.70
2023-03-10T23:41:15.385Z,18.20
2023-03-10T23:43:46.114Z,19.00
2023-03-10T23:46:16.909Z,18.50
2023-03-10T23:48:47.693Z,18.90
2023-03-10T23:51:19.085Z,19.20
2023-03-10T23:53:49.827Z,20.70
2023-03-10T23:56:20.619Z,18.80
2023-03-10T23:58:51.281Z,18.70
